createdAt,value
2022-12-09T00:02:23.176Z,62.51
2022-12-09T00:07:26.664Z,61.92
2022-12-09T00:12:29.921Z,62.25
2022-12-09T00:17:33.482Z,62.05
2022-12-09T00:22:37.015Z,62.05
2022-12-09T00:27:40.626Z,61.78
2022-12-09T00:32:44.653Z,61.80
2022-12-09T00:37:49.543Z,61.75
2022-12-09T00:42:53.078Z,61.91
2022-12-09T00:47:57.504Z,61.50
2022-12-09T00:53:02.422Z,61.40
2022-12-09T00:58:06.468Z,61.64
2022-12-09T01:03:19.017Z,61.60
2022-12-09T01:08:23.224Z,61.28
2022-12-09T01:13:27.598Z,61.45
2022-12-09T01:18:32.222Z,61.45
2022-12-09T01:23:36.144Z,61.24
2022-12-09T01:28:40.388Z,61.22
2022-12-09T01:33:44.727Z,60.74
2022-12-09T01:38:50.032Z,60.57
2022-12-09T01:44:11.895Z,60.89
2022-12-09T01:49:31.209Z,60.79
2022-12-09T01:54:34.765Z,60.63
2022-12-09T01:59:41.277Z,60.41
2022-12-09T02:04:46.566Z,60.41
2022-12-09T02:09:52.575Z,60.16
2022-12-09T02:15:19.683Z,60.25
2022-12-09T02:20:39.302Z,60.33
2022-12-09T02:25:55.649Z,60.23
2022-12-09T02:31:18.371Z,60.22
2022-12-09T02:36:29.045Z,59.96
2022-12-09T02:41:36.179Z,60.21
2022-12-09T02:46:42.756Z,59.89
2022-12-09T02:51:50.509Z,60.15
2022-12-09T02:56:58.534Z,59.63
2022-12-09T03:02:11.235Z,59.76
2022-12-09T03:07:17.667Z,59.62
2022-12-09T03:12:22.693Z,59.81
2022-12-09T03:17:34.064Z,59.51
2022-12-09T03:22:41.385Z,59.50
2022-12-09T03:27:50.540Z,59.75
2022-12-09T03:32:56.084Z,59.81
2022-12-09T03:38:02.769Z,59.76
2022-12-09T03:43:13.342Z,59.60
2022-12-09T03:48:17.850Z,59.65
2022-12-09T03:53:50.943Z,59.34
2022-12-09T03:58:58.439Z,59.81
2022-12-09T04:04:02.468Z,59.85
2022-12-09T04:09:06.856Z,59.62
2022-12-09T04:14:15.582Z,59.71
2022-12-09T04:19:19.810Z,59.90
2022-12-09T04:24:23.317Z,59.99
2022-12-09T04:29:26.986Z,59.85
2022-12-09T04:34:30.420Z,60.13
2022-12-09T04:39:34.343Z,59.99
2022-12-09T04:44:38.610Z,60.23
2022-12-09T04:49:42.793Z,60.19
2022-12-09T04:54:46.881Z,59.88
2022-12-09T04:59:51.114Z,60.15
2022-12-09T05:04:54.962Z,60.34
2022-12-09T05:09:59.478Z,59.86
2022-12-09T05:15:03.348Z,60.12
2022-12-09T05:20:08.348Z,59.75
2022-12-09T05:25:12.139Z,59.80
2022-12-09T05:30:16.463Z,59.71
2022-12-09T05:35:19.870Z,59.18
2022-12-09T05:40:23.633Z,59.37
2022-12-09T05:45:27.477Z,59.20
2022-12-09T05:50:31.145Z,59.51
2022-12-09T05:55:35.020Z,59.53
2022-12-09T06:00:38.718Z,59.39
2022-12-09T06:05:43.309Z,59.09
2022-12-09T06:10:47.367Z,59.08
2022-12-09T06:15:51.237Z,58.86
2022-12-09T06:20:54.703Z,59.32
2022-12-09T06:25:58.343Z,58.70
2022-12-09T06:31:02.808Z,58.83
2022-12-09T06:36:07.907Z,58.82
2022-12-09T06:41:14.264Z,58.80
2022-12-09T06:46:21.404Z,58.75
2022-12-09T06:51:26.102Z,58.52
2022-12-09T06:56:29.642Z,58.94
2022-12-09T07:01:33.200Z,59.14
2022-12-09T07:06:44.406Z,58.83
2022-12-09T07:11:48.891Z,59.08
2022-12-09T07:16:52.958Z,58.96
2022-12-09T07:21:57.150Z,58.61
2022-12-09T07:27:06.159Z,58.53
2022-12-09T07:32:12.344Z,58.50
2022-12-09T07:37:16.365Z,58.21
2022-12-09T07:42:19.805Z,58.36
2022-12-09T07:47:30.252Z,58.35
2022-12-09T07:52:34.451Z,58.09
2022-12-09T07:57:38.839Z,57.77
2022-12-09T08:02:44.084Z,57.68
2022-12-09T08:07:48.456Z,57.53
2022-12-09T08:12:53.547Z,57.59
2022-12-09T08:18:00.279Z,57.23
2022-12-09T08:23:05.651Z,57.03
2022-12-09T08:28:09.489Z,56.84
2022-12-09T08:33:13.040Z,56.63
2022-12-09T08:38:16.793Z,56.64
2022-12-09T08:43:21.440Z,56.53
2022-12-09T08:48:25.467Z,56.70
2022-12-09T08:53:29.148Z,56.35
2022-12-09T08:58:34.326Z,56.65
2022-12-09T09:03:38.315Z,56.36
2022-12-09T09:08:42.339Z,56.33
2022-12-09T09:13:48.825Z,56.52
2022-12-09T09:18:54.238Z,56.47
2022-12-09T09:23:57.972Z,56.29
2022-12-09T09:29:01.549Z,56.37
2022-12-09T09:34:05.702Z,56.05
2022-12-09T09:39:09.822Z,55.87
2022-12-09T09:44:36.072Z,55.68
2022-12-09T09:49:56.326Z,55.85
2022-12-09T09:55:06.883Z,55.80
2022-12-09T10:00:25.022Z,55.71
2022-12-09T10:05:36.123Z,55.64
2022-12-09T10:10:49.428Z,55.44
2022-12-09T10:16:14.405Z,55.36
2022-12-09T10:21:20.892Z,55.11
2022-12-09T10:26:29.201Z,54.88
2022-12-09T10:31:34.434Z,55.02
2022-12-09T10:36:39.600Z,55.10
2022-12-09T10:41:50.113Z,54.47
2022-12-09T10:47:05.129Z,54.94
2022-12-09T10:52:09.317Z,54.70
2022-12-09T10:57:13.013Z,54.42
2022-12-09T11:02:22.351Z,54.47
2022-12-09T11:07:28.923Z,54.27
2022-12-09T11:12:40.622Z,54.05
2022-12-09T11:17:57.674Z,54.26
2022-12-09T11:23:05.270Z,54.35
2022-12-09T11:28:18.197Z,54.45
2022-12-09T11:33:29.788Z,54.30
2022-12-09T11:38:48.567Z,54.26
2022-12-09T11:43:57.114Z,54.23
2022-12-09T11:49:18.674Z,54.03
2022-12-09T11:54:32.466Z,54.04
2022-12-09T11:59:45.508Z,53.85
2022-12-09T12:05:03.444Z,53.68
2022-12-09T12:10:18.055Z,53.87
2022-12-09T12:15:32.650Z,53.41
2022-12-09T12:20:55.249Z,53.47
2022-12-09T12:26:10.967Z,53.52
2022-12-09T12:31:38.986Z,53.64
2022-12-09T12:36:53.166Z,53.84
2022-12-09T12:42:22.720Z,54.18
2022-12-09T12:47:28.835Z,54.56
2022-12-09T12:52:57.449Z,55.06
2022-12-09T12:58:31.183Z,55.71
2022-12-09T13:03:48.951Z,55.70
2022-12-09T13:09:03.401Z,56.09
2022-12-09T13:14:16.817Z,56.58
2022-12-09T13:19:44.361Z,56.68
2022-12-09T13:25:14.148Z,57.18
2022-12-09T13:30:27.223Z,57.40
2022-12-09T13:35:34.026Z,57.58
2022-12-09T13:40:38.807Z,57.84
2022-12-09T13:45:44.889Z,58.52
2022-12-09T13:50:51.078Z,58.80
2022-12-09T13:56:08.105Z,59.11
2022-12-09T14:01:12.250Z,59.76
2022-12-09T14:06:29.926Z,60.08
2022-12-09T14:11:43.763Z,60.79
2022-12-09T14:16:47.331Z,61.25
2022-12-09T14:22:19.080Z,61.35
2022-12-09T14:27:31.711Z,61.92
2022-12-09T14:32:36.352Z,62.20
2022-12-09T14:38:02.901Z,62.78
2022-12-09T14:43:50.141Z,63.15
2022-12-09T14:48:59.111Z,63.67
2022-12-09T14:54:13.293Z,63.90
2022-12-09T14:59:23.830Z,64.58
2022-12-09T15:04:42.059Z,64.73
2022-12-09T15:09:59.470Z,64.90
2022-12-09T15:15:38.100Z,65.16
2022-12-09T15:20:42.489Z,65.71
2022-12-09T15:25:53.296Z,65.77
2022-12-09T15:31:00.650Z,66.25
2022-12-09T15:36:14.715Z,65.86
2022-12-09T15:41:20.023Z,66.73
2022-12-09T15:46:26.744Z,67.02
2022-12-09T15:51:31.017Z,66.94
2022-12-09T15:56:44.153Z,67.23
2022-12-09T16:01:51.003Z,67.64
2022-12-09T16:06:54.945Z,67.29
2022-12-09T16:11:58.214Z,67.67
2022-12-09T16:17:04.071Z,67.86
2022-12-09T16:22:11.713Z,68.13
2022-12-09T16:27:20.437Z,67.73
2022-12-09T16:32:30.693Z,68.53
2022-12-09T16:37:33.979Z,68.59
2022-12-09T16:42:40.870Z,68.59
2022-12-09T16:47:45.456Z,68.63
2022-12-09T16:52:49.339Z,68.87
2022-12-09T16:57:54.314Z,69.54
2022-12-09T17:03:06.678Z,69.11
2022-12-09T17:08:10.245Z,69.21
2022-12-09T17:13:13.916Z,69.51
2022-12-09T17:18:17.319Z,69.86
2022-12-09T17:23:20.855Z,70.06
2022-12-09T17:28:29.765Z,70.07
2022-12-09T17:33:33.736Z,70.06
2022-12-09T17:38:38.736Z,70.25
2022-12-09T17:43:43.416Z,70.35
2022-12-09T17:48:46.790Z,70.98
2022-12-09T17:53:50.335Z,70.77
2022-12-09T17:59:05.533Z,71.05
2022-12-09T18:04:09.676Z,71.02
2022-12-09T18:09:16.264Z,71.15
2022-12-09T18:14:20.041Z,71.18
2022-12-09T18:19:23.508Z,71.22
2022-12-09T18:24:28.630Z,71.11
2022-12-09T18:29:32.273Z,71.19
2022-12-09T18:34:35.685Z,71.06
2022-12-09T18:39:39.082Z,71.31
2022-12-09T18:44:42.845Z,71.43
2022-12-09T18:49:46.625Z,71.35
2022-12-09T18:54:50.338Z,71.92
2022-12-09T18:59:54.840Z,71.55
2022-12-09T19:04:58.230Z,71.71
2022-12-09T19:10:01.695Z,72.23
2022-12-09T19:15:07.929Z,71.92
2022-12-09T19:20:11.581Z,71.86
2022-12-09T19:25:14.964Z,71.94
2022-12-09T19:30:18.507Z,71.88
2022-12-09T19:35:22.226Z,72.01
2022-12-09T19:40:25.729Z,71.94
2022-12-09T19:45:29.116Z,71.70
2022-12-09T19:50:32.542Z,71.73
2022-12-09T19:55:36.187Z,71.50
2022-12-09T20:00:41.556Z,71.06
2022-12-09T20:05:53.747Z,71.02
2022-12-09T20:10:57.153Z,70.83
2022-12-09T20:16:08.846Z,70.59
2022-12-09T20:21:13.610Z,70.58
2022-12-09T20:26:26.141Z,70.69
2022-12-09T20:31:31.659Z,70.94
2022-12-09T20:36:36.578Z,70.74
2022-12-09T20:41:41.213Z,70.86
2022-12-09T20:46:50.945Z,70.60
2022-12-09T20:51:54.620Z,70.99
2022-12-09T20:56:58.203Z,70.76
2022-12-09T21:02:01.755Z,71.44
2022-12-09T21:07:06.140Z,70.96
2022-12-09T21:12:10.885Z,70.71
2022-12-09T21:17:14.263Z,70.84
2022-12-09T21:22:17.757Z,70.98
2022-12-09T21:27:21.064Z,70.35
2022-12-09T21:32:25.313Z,70.41
2022-12-09T21:37:29.619Z,70.24
2022-12-09T21:42:34.513Z,69.68
2022-12-09T21:47:37.895Z,69.53
2022-12-09T21:52:41.509Z,69.14
2022-12-09T21:57:45.341Z,69.21
2022-12-09T22:02:52.282Z,69.07
2022-12-09T22:07:56.632Z,68.94
2022-12-09T22:12:59.952Z,68.91
2022-12-09T22:18:03.358Z,68.55
2022-12-09T22:23:06.868Z,68.47
2022-12-09T22:28:10.450Z,68.62
2022-12-09T22:33:13.816Z,68.15
2022-12-09T22:38:17.273Z,68.34
2022-12-09T22:43:20.612Z,67.98
2022-12-09T22:48:24.474Z,68.37
2022-12-09T22:53:27.776Z,68.48
2022-12-09T22:58:31.641Z,68.02
2022-12-09T23:03:35.225Z,68.19
2022-12-09T23:08:40.285Z,68.11
2022-12-09T23:13:44.536Z,67.52
2022-12-09T23:18:48.424Z,67.37
2022-12-09T23:23:56.812Z,67.09
2022-12-09T23:29:01.788Z,67.41
2022-12-09T23:34:07.526Z,67.09
2022-12-09T23:39:13.730Z,66.83
2022-12-09T23:44:19.094Z,66.60
2022-12-09T23:49:22.522Z,67.02
2022-12-09T23:54:25.839Z,66.45
2022-12-09T23:59:29.107Z,66.66
